createdAt,value
2022-08-27T00:02:18.322Z,24.00
2022-08-27T00:04:46.447Z,24.10
2022-08-27T00:07:13.919Z,24.00
2022-08-27T00:09:41.032Z,24.00
2022-08-27T00:12:08.583Z,24.00
2022-08-27T00:14:36.045Z,24.00
2022-08-27T00:17:03.238Z,24.00
2022-08-27T00:19:29.946Z,24.00
2022-08-27T00:21:56.712Z,23.90
2022-08-27T00:24:23.907Z,23.90
2022-08-27T00:26:53.461Z,23.90
2022-08-27T00:29:20.460Z,23.90
2022-08-27T00:31:47.256Z,23.90
2022-08-27T00:34:20.372Z,23.90
2022-08-27T00:36:47.847Z,23.80
2022-08-27T00:39:14.544Z,23.90
2022-08-27T00:41:43.422Z,23.80
2022-08-27T00:44:10.667Z,23.80
2022-08-27T00:46:42.890Z,23.80
2022-08-27T00:49:29.811Z,23.80
2022-08-27T00:51:58.290Z,23.80
2022-08-27T00:54:26.346Z,23.80
2022-08-27T00:56:53.220Z,23.80
2022-08-27T00:59:21.783Z,23.70
2022-08-27T01:02:07.232Z,23.70
2022-08-27T01:04:36.032Z,23.80
2022-08-27T01:07:02.827Z,23.70
2022-08-27T01:09:30.213Z,23.70
2022-08-27T01:11:58.058Z,23.70
2022-08-27T01:14:25.374Z,23.70
2022-08-27T01:16:54.402Z,23.70
2022-08-27T01:19:35.507Z,23.70
2022-08-27T01:22:19.077Z,23.70
2022-08-27T01:24:49.689Z,23.70
2022-08-27T01:27:22.639Z,23.60
2022-08-27T01:29:49.373Z,23.60
2022-08-27T01:32:18.554Z,23.60
2022-08-27T01:34:46.025Z,23.60
2022-08-27T01:37:13.405Z,23.60
2022-08-27T01:39:42.037Z,23.50
2022-08-27T01:42:15.319Z,23.50
2022-08-27T01:44:43.216Z,23.50
2022-08-27T01:47:09.963Z,23.50
2022-08-27T01:49:36.746Z,23.50
2022-08-27T01:52:04.124Z,23.40
2022-08-27T01:54:31.464Z,23.40
2022-08-27T01:56:58.731Z,23.30
2022-08-27T01:59:26.360Z,23.40
2022-08-27T02:02:07.497Z,23.30
2022-08-27T02:04:34.247Z,23.30
2022-08-27T02:07:00.918Z,23.30
2022-08-27T02:09:27.612Z,23.40
2022-08-27T02:11:54.287Z,23.30
2022-08-27T02:14:21.050Z,23.20
2022-08-27T02:16:52.530Z,23.30
2022-08-27T02:19:19.843Z,23.20
2022-08-27T02:21:47.671Z,23.20
2022-08-27T02:24:14.434Z,23.20
2022-08-27T02:26:41.668Z,23.20
2022-08-27T02:29:08.740Z,23.20
2022-08-27T02:31:35.575Z,23.10
2022-08-27T02:34:02.454Z,23.20
2022-08-27T02:36:30.211Z,23.20
2022-08-27T02:38:56.979Z,23.20
2022-08-27T02:41:23.848Z,23.20
2022-08-27T02:43:50.583Z,23.10
2022-08-27T02:46:17.354Z,23.10
2022-08-27T02:48:44.908Z,23.10
2022-08-27T02:51:11.649Z,23.10
2022-08-27T02:53:38.346Z,23.10
2022-08-27T02:56:06.183Z,23.10
2022-08-27T02:58:33.756Z,23.00
2022-08-27T03:01:01.672Z,23.10
2022-08-27T03:03:31.727Z,23.00
2022-08-27T03:05:59.147Z,23.00
2022-08-27T03:08:26.664Z,23.00
2022-08-27T03:10:56.005Z,23.00
2022-08-27T03:13:23.162Z,23.00
2022-08-27T03:15:49.920Z,23.00
2022-08-27T03:18:18.509Z,23.00
2022-08-27T03:20:52.534Z,23.00
2022-08-27T03:23:22.257Z,23.00
2022-08-27T03:25:51.589Z,22.90
2022-08-27T03:28:22.833Z,22.90
2022-08-27T03:30:52.068Z,22.90
2022-08-27T03:33:20.027Z,22.90
2022-08-27T03:35:51.504Z,22.80
2022-08-27T03:38:18.656Z,22.80
2022-08-27T03:40:45.580Z,22.80
2022-08-27T03:43:13.111Z,22.80
2022-08-27T03:45:52.912Z,22.80
2022-08-27T03:48:27.648Z,22.80
2022-08-27T03:50:54.358Z,22.80
2022-08-27T03:53:21.120Z,22.80
2022-08-27T03:55:47.957Z,22.70
2022-08-27T03:58:14.984Z,22.70
2022-08-27T04:00:42.297Z,22.70
2022-08-27T04:03:11.821Z,22.70
2022-08-27T04:05:38.645Z,22.70
2022-08-27T04:08:05.820Z,22.70
2022-08-27T04:10:34.799Z,22.70
2022-08-27T04:13:02.069Z,22.70
2022-08-27T04:15:30.026Z,22.70
2022-08-27T04:17:56.828Z,22.70
2022-08-27T04:20:36.980Z,22.70
2022-08-27T04:23:04.302Z,22.70
2022-08-27T04:25:31.748Z,22.70
2022-08-27T04:27:58.946Z,22.70
2022-08-27T04:30:25.779Z,22.70
2022-08-27T04:32:52.506Z,22.70
2022-08-27T04:35:19.236Z,22.70
2022-08-27T04:37:45.959Z,22.60
2022-08-27T04:40:12.693Z,22.60
2022-08-27T04:42:39.516Z,22.60
2022-08-27T04:45:06.525Z,22.50
2022-08-27T04:47:33.316Z,22.60
2022-08-27T04:50:00.019Z,22.60
2022-08-27T04:52:26.985Z,22.50
2022-08-27T04:54:53.813Z,22.60
2022-08-27T04:57:21.217Z,22.60
2022-08-27T04:59:48.104Z,22.50
2022-08-27T05:02:16.639Z,22.50
2022-08-27T05:04:43.375Z,22.50
2022-08-27T05:07:10.788Z,22.60
2022-08-27T05:09:37.693Z,22.50
2022-08-27T05:12:04.789Z,22.50
2022-08-27T05:14:32.925Z,22.50
2022-08-27T05:17:00.214Z,22.50
2022-08-27T05:19:27.284Z,22.60
2022-08-27T05:21:54.399Z,22.50
2022-08-27T05:24:21.242Z,22.50
2022-08-27T05:26:48.160Z,22.50
2022-08-27T05:29:14.999Z,22.50
2022-08-27T05:31:41.912Z,22.50
2022-08-27T05:34:10.713Z,22.50
2022-08-27T05:36:47.813Z,22.50
2022-08-27T05:39:16.568Z,22.50
2022-08-27T05:41:43.292Z,22.50
2022-08-27T05:46:57.012Z,22.40
2022-08-27T05:49:23.771Z,22.40
2022-08-27T05:51:50.460Z,22.40
2022-08-27T05:54:19.986Z,22.50
2022-08-27T05:56:47.514Z,22.40
2022-08-27T05:59:34.766Z,22.40
2022-08-27T06:02:02.366Z,22.40
2022-08-27T06:04:29.091Z,22.40
2022-08-27T06:06:55.828Z,22.40
2022-08-27T06:09:24.169Z,22.40
2022-08-27T06:11:52.790Z,22.40
2022-08-27T06:14:19.511Z,22.30
2022-08-27T06:16:46.287Z,22.40
2022-08-27T06:19:12.995Z,22.30
2022-08-27T06:21:40.847Z,22.30
2022-08-27T06:24:08.411Z,22.40
2022-08-27T06:26:36.438Z,22.30
2022-08-27T06:29:07.381Z,22.30
2022-08-27T06:31:35.677Z,22.30
2022-08-27T06:34:07.303Z,22.30
2022-08-27T06:36:36.206Z,22.30
2022-08-27T06:39:03.084Z,22.30
2022-08-27T06:41:29.815Z,22.30
2022-08-27T06:43:56.781Z,22.20
2022-08-27T06:46:24.357Z,22.30
2022-08-27T06:48:52.261Z,22.30
2022-08-27T06:51:21.035Z,22.30
2022-08-27T06:53:48.221Z,22.30
2022-08-27T06:56:15.703Z,22.30
2022-08-27T06:58:42.878Z,22.30
2022-08-27T07:01:17.335Z,22.20
2022-08-27T07:03:44.401Z,22.30
2022-08-27T07:06:12.191Z,22.20
2022-08-27T07:08:39.729Z,22.30
2022-08-27T07:11:08.413Z,22.30
2022-08-27T07:13:35.435Z,22.30
2022-08-27T07:16:10.611Z,22.30
2022-08-27T07:18:38.595Z,22.30
2022-08-27T07:21:08.251Z,22.30
2022-08-27T07:23:35.436Z,22.20
2022-08-27T07:26:02.475Z,22.30
2022-08-27T07:28:29.553Z,22.30
2022-08-27T07:30:56.323Z,22.30
2022-08-27T07:33:23.361Z,22.20
2022-08-27T07:35:50.107Z,22.20
2022-08-27T07:38:16.849Z,22.20
2022-08-27T07:40:44.216Z,22.20
2022-08-27T07:43:29.488Z,22.20
2022-08-27T07:45:57.305Z,22.20
2022-08-27T07:48:24.090Z,22.20
2022-08-27T07:50:52.544Z,22.20
2022-08-27T07:53:19.587Z,22.20
2022-08-27T07:55:46.435Z,22.20
2022-08-27T07:58:16.863Z,22.20
2022-08-27T08:00:45.397Z,22.20
2022-08-27T08:03:12.732Z,22.30
2022-08-27T08:05:43.251Z,22.30
2022-08-27T08:08:10.628Z,22.30
2022-08-27T08:10:38.374Z,22.30
2022-08-27T08:13:05.759Z,22.30
2022-08-27T08:15:32.931Z,22.20
2022-08-27T08:17:59.726Z,22.20
2022-08-27T08:20:41.486Z,22.20
2022-08-27T08:23:13.353Z,22.20
2022-08-27T08:25:40.718Z,22.20
2022-08-27T08:28:07.509Z,22.20
2022-08-27T08:30:35.488Z,22.20
2022-08-27T08:33:02.489Z,22.20
2022-08-27T08:35:38.620Z,22.20
2022-08-27T08:38:07.937Z,22.20
2022-08-27T08:40:36.629Z,22.10
2022-08-27T08:43:05.337Z,22.20
2022-08-27T08:45:34.822Z,22.20
2022-08-27T08:48:05.022Z,22.20
2022-08-27T08:50:39.174Z,22.10
2022-08-27T08:53:08.620Z,22.10
2022-08-27T08:55:46.196Z,22.10
2022-08-27T08:58:18.687Z,22.10
2022-08-27T09:00:46.538Z,22.10
2022-08-27T09:03:14.411Z,22.10
2022-08-27T09:05:46.099Z,22.20
2022-08-27T09:08:33.070Z,22.10
2022-08-27T09:11:07.342Z,22.00
2022-08-27T09:13:36.783Z,22.10
2022-08-27T09:16:04.103Z,22.10
2022-08-27T09:18:31.517Z,22.10
2022-08-27T09:21:08.746Z,22.00
2022-08-27T09:23:40.480Z,22.00
2022-08-27T09:26:17.325Z,22.00
2022-08-27T09:29:03.031Z,22.00
2022-08-27T09:31:29.858Z,21.90
2022-08-27T09:33:57.282Z,22.00
2022-08-27T09:36:24.239Z,22.00
2022-08-27T09:38:58.365Z,22.00
2022-08-27T09:41:31.154Z,22.00
2022-08-27T09:44:03.663Z,22.00
2022-08-27T09:46:31.246Z,21.90
2022-08-27T09:49:09.304Z,21.90
2022-08-27T09:51:40.009Z,21.90
2022-08-27T09:54:08.373Z,21.90
2022-08-27T09:56:35.022Z,21.90
2022-08-27T09:59:25.035Z,21.90
2022-08-27T10:02:04.403Z,21.90
2022-08-27T10:04:41.568Z,21.90
2022-08-27T10:07:26.077Z,21.90
2022-08-27T10:10:00.463Z,21.90
2022-08-27T10:12:33.920Z,21.90
2022-08-27T10:15:01.267Z,21.90
2022-08-27T10:17:27.908Z,22.00
2022-08-27T10:19:58.128Z,21.90
2022-08-27T10:22:34.015Z,21.90
2022-08-27T10:25:01.472Z,21.90
2022-08-27T10:27:33.930Z,21.80
2022-08-27T10:30:07.514Z,21.90
2022-08-27T10:32:56.704Z,21.80
2022-08-27T10:35:48.063Z,21.80
2022-08-27T10:38:21.172Z,21.80
2022-08-27T10:41:03.299Z,21.80
2022-08-27T10:43:54.592Z,21.80
2022-08-27T10:46:27.552Z,21.60
2022-08-27T10:49:02.016Z,21.70
2022-08-27T10:51:33.961Z,21.70
2022-08-27T10:54:09.873Z,21.70
2022-08-27T10:56:36.562Z,21.70
2022-08-27T10:59:03.780Z,21.70
2022-08-27T11:01:33.395Z,21.70
2022-08-27T11:04:02.801Z,21.80
2022-08-27T11:06:36.603Z,21.80
2022-08-27T11:09:15.524Z,21.80
2022-08-27T11:14:53.510Z,21.70
2022-08-27T11:17:35.831Z,21.60
2022-08-27T11:20:02.630Z,21.60
2022-08-27T11:22:49.602Z,21.60
2022-08-27T11:25:16.301Z,21.60
2022-08-27T11:27:43.423Z,21.70
2022-08-27T11:30:25.627Z,21.70
2022-08-27T11:33:01.459Z,21.70
2022-08-27T11:35:34.779Z,21.70
2022-08-27T11:38:12.593Z,21.70
2022-08-27T11:40:49.469Z,21.70
2022-08-27T11:43:17.836Z,21.70
2022-08-27T11:45:55.719Z,21.70
2022-08-27T11:48:30.638Z,21.80
2022-08-27T11:51:00.142Z,21.70
2022-08-27T11:53:29.095Z,21.80
2022-08-27T11:55:56.324Z,21.80
2022-08-27T11:58:25.015Z,21.80
2022-08-27T12:00:54.554Z,21.90
2022-08-27T12:03:21.220Z,21.90
2022-08-27T12:05:47.958Z,21.90
2022-08-27T12:08:24.115Z,21.90
2022-08-27T12:11:02.981Z,21.90
2022-08-27T12:13:38.215Z,21.90
2022-08-27T12:16:25.369Z,22.00
2022-08-27T12:19:01.305Z,22.00
2022-08-27T12:21:35.349Z,22.00
2022-08-27T12:24:02.070Z,22.10
2022-08-27T12:26:31.455Z,22.20
2022-08-27T12:29:16.896Z,22.00
2022-08-27T12:31:45.916Z,22.20
2022-08-27T12:34:16.734Z,22.30
2022-08-27T12:36:50.181Z,22.20
2022-08-27T12:39:18.629Z,22.30
2022-08-27T12:41:46.819Z,22.30
2022-08-27T12:44:14.929Z,22.30
2022-08-27T12:46:49.964Z,22.30
2022-08-27T12:49:37.926Z,22.30
2022-08-27T12:52:18.793Z,22.30
2022-08-27T12:54:55.013Z,22.40
2022-08-27T12:57:21.647Z,22.40
2022-08-27T12:59:57.287Z,22.40
2022-08-27T13:02:23.937Z,22.40
2022-08-27T13:04:50.996Z,22.40
2022-08-27T13:07:37.954Z,22.50
2022-08-27T13:10:09.646Z,22.50
2022-08-27T13:12:36.304Z,22.50
2022-08-27T13:15:10.773Z,22.50
2022-08-27T13:17:42.904Z,22.60
2022-08-27T13:20:23.730Z,22.60
2022-08-27T13:22:51.102Z,22.70
2022-08-27T13:25:21.124Z,22.80
2022-08-27T13:28:00.046Z,22.80
2022-08-27T13:30:35.526Z,22.80
2022-08-27T13:33:04.019Z,22.80
2022-08-27T13:35:32.610Z,22.90
2022-08-27T13:38:01.178Z,22.90
2022-08-27T13:40:47.860Z,22.90
2022-08-27T13:43:15.319Z,22.90
2022-08-27T13:45:42.295Z,22.90
2022-08-27T13:48:11.801Z,22.90
2022-08-27T13:50:47.839Z,22.90
2022-08-27T14:09:34.012Z,22.20
2022-08-27T14:12:06.549Z,22.00
2022-08-27T14:14:39.498Z,22.00
2022-08-27T14:17:19.975Z,22.10
2022-08-27T14:19:47.888Z,22.20
2022-08-27T14:22:17.382Z,22.20
2022-08-27T14:24:44.263Z,22.40
2022-08-27T14:27:14.678Z,22.50
2022-08-27T14:29:41.767Z,22.60
2022-08-27T14:32:08.965Z,22.70
2022-08-27T14:34:36.611Z,22.80
2022-08-27T14:37:04.777Z,22.90
2022-08-27T14:39:31.981Z,22.90
2022-08-27T14:41:59.320Z,23.10
2022-08-27T14:44:27.015Z,23.20
2022-08-27T14:46:54.725Z,23.30
2022-08-27T14:49:34.958Z,23.30
2022-08-27T14:52:04.444Z,23.40
2022-08-27T14:54:33.602Z,23.40
2022-08-27T14:57:02.379Z,23.50
2022-08-27T14:59:29.410Z,23.50
2022-08-27T15:02:01.474Z,23.70
2022-08-27T15:04:29.228Z,23.70
2022-08-27T15:06:56.151Z,23.70
2022-08-27T15:09:23.132Z,23.80
2022-08-27T15:11:51.086Z,23.80
2022-08-27T15:14:26.466Z,24.00
2022-08-27T15:16:54.170Z,24.00
2022-08-27T15:19:23.297Z,24.00
2022-08-27T15:21:52.058Z,24.00
2022-08-27T15:24:28.299Z,24.00
2022-08-27T15:26:59.619Z,24.20
2022-08-27T15:29:27.212Z,24.10
2022-08-27T15:31:54.430Z,24.20
2022-08-27T15:34:21.756Z,24.20
2022-08-27T15:36:48.614Z,24.20
2022-08-27T15:39:15.569Z,24.20
2022-08-27T15:42:05.052Z,24.20
2022-08-27T15:44:30.562Z,24.30
2022-08-27T15:46:57.597Z,24.30
2022-08-27T15:49:24.470Z,24.30
2022-08-27T15:51:52.030Z,24.30
2022-08-27T15:54:19.587Z,24.30
2022-08-27T15:56:46.523Z,24.40
2022-08-27T15:59:13.370Z,24.30
2022-08-27T16:01:40.316Z,24.30
2022-08-27T16:04:07.980Z,24.30
2022-08-27T16:06:35.108Z,24.20
2022-08-27T16:09:02.811Z,24.20
2022-08-27T16:11:32.248Z,24.20
2022-08-27T16:13:59.278Z,24.20
2022-08-27T16:16:30.851Z,24.10
2022-08-27T16:19:01.334Z,24.10
2022-08-27T16:21:28.763Z,24.10
2022-08-27T16:23:55.589Z,24.00
2022-08-27T16:26:23.137Z,24.00
2022-08-27T16:28:49.881Z,24.00
2022-08-27T16:31:16.833Z,24.00
2022-08-27T16:33:44.010Z,24.00
2022-08-27T16:36:11.165Z,24.00
2022-08-27T16:38:38.189Z,24.00
2022-08-27T16:41:05.688Z,23.90
2022-08-27T16:43:33.045Z,23.90
2022-08-27T16:46:01.820Z,23.90
2022-08-27T16:48:47.725Z,23.90
2022-08-27T16:51:32.648Z,23.90
2022-08-27T16:54:01.715Z,23.90
2022-08-27T16:56:28.744Z,23.80
2022-08-27T16:58:55.643Z,23.80
2022-08-27T17:01:24.984Z,23.80
2022-08-27T17:04:09.040Z,23.80
2022-08-27T17:06:40.108Z,23.80
2022-08-27T17:09:07.278Z,23.80
2022-08-27T17:11:36.179Z,23.80
2022-08-27T17:14:04.626Z,23.80
2022-08-27T17:16:33.512Z,23.80
2022-08-27T17:19:02.306Z,23.80
2022-08-27T17:21:30.312Z,23.80
2022-08-27T17:24:01.810Z,23.70
2022-08-27T17:26:30.330Z,23.70
2022-08-27T17:28:57.760Z,23.70
2022-08-27T17:31:33.401Z,23.70
2022-08-27T17:34:00.778Z,23.70
2022-08-27T17:36:30.398Z,23.70
2022-08-27T17:38:57.647Z,23.60
2022-08-27T17:41:36.803Z,23.70
2022-08-27T17:44:24.225Z,23.70
2022-08-27T17:46:52.469Z,23.70
2022-08-27T17:49:19.362Z,23.70
2022-08-27T17:51:48.417Z,23.60
2022-08-27T17:54:26.275Z,23.60
2022-08-27T17:56:53.022Z,23.70
2022-08-27T17:59:20.486Z,23.70
2022-08-27T18:01:47.828Z,23.60
2022-08-27T18:04:15.099Z,23.60
2022-08-27T18:06:42.139Z,23.60
2022-08-27T18:09:09.434Z,23.60
2022-08-27T18:11:39.238Z,23.60
2022-08-27T18:14:06.112Z,23.60
2022-08-27T18:16:33.874Z,23.50
2022-08-27T18:19:06.843Z,23.50
2022-08-27T18:21:34.104Z,23.50
2022-08-27T18:24:01.250Z,23.50
2022-08-27T18:26:29.567Z,23.50
2022-08-27T18:28:57.895Z,23.50
2022-08-27T18:31:32.740Z,23.50
2022-08-27T18:34:00.868Z,23.50
2022-08-27T18:36:27.944Z,23.50
2022-08-27T18:38:54.752Z,23.50
2022-08-27T18:41:22.622Z,23.50
2022-08-27T18:43:49.730Z,23.50
2022-08-27T18:46:17.316Z,23.50
2022-08-27T18:48:44.359Z,23.40
2022-08-27T18:51:14.037Z,23.40
2022-08-27T18:53:42.881Z,23.50
2022-08-27T18:56:12.167Z,23.40
2022-08-27T18:58:43.702Z,23.50
2022-08-27T19:01:14.128Z,23.40
2022-08-27T19:03:48.385Z,23.50
2022-08-27T19:06:18.029Z,23.40
2022-08-27T19:08:44.876Z,23.40
2022-08-27T19:11:11.785Z,23.40
2022-08-27T19:13:39.158Z,23.30
2022-08-27T19:16:18.748Z,23.50
2022-08-27T19:18:46.851Z,23.40
2022-08-27T19:21:14.258Z,23.40
2022-08-27T19:23:41.697Z,23.40
2022-08-27T19:26:15.969Z,23.40
2022-08-27T19:28:45.203Z,23.30
2022-08-27T19:31:13.472Z,23.40
2022-08-27T19:33:40.519Z,23.40
2022-08-27T19:36:12.591Z,23.30
2022-08-27T19:38:43.319Z,23.30
2022-08-27T19:41:10.244Z,23.30
2022-08-27T19:43:37.764Z,23.30
2022-08-27T19:46:07.579Z,23.30
2022-08-27T19:48:34.584Z,23.30
2022-08-27T19:51:01.559Z,23.30
2022-08-27T19:53:28.376Z,23.30
2022-08-27T19:55:55.289Z,23.30
2022-08-27T19:58:22.384Z,23.30
2022-08-27T20:00:49.399Z,23.30
2022-08-27T20:03:16.613Z,23.20
2022-08-27T20:05:45.486Z,23.20
2022-08-27T20:08:12.736Z,23.20
2022-08-27T20:10:40.236Z,23.20
2022-08-27T20:13:08.050Z,23.20
2022-08-27T20:15:36.594Z,23.20
2022-08-27T20:18:05.686Z,23.20
2022-08-27T20:20:34.091Z,23.20
2022-08-27T20:23:02.923Z,23.10
2022-08-27T20:25:30.172Z,23.10
2022-08-27T20:27:57.003Z,23.20
2022-08-27T20:30:26.809Z,23.20
2022-08-27T20:32:53.715Z,23.10
2022-08-27T20:35:21.870Z,23.10
2022-08-27T20:37:48.630Z,23.00
2022-08-27T20:40:21.663Z,23.10
2022-08-27T20:42:48.624Z,23.10
2022-08-27T20:45:16.774Z,23.10
2022-08-27T20:47:45.946Z,23.20
2022-08-27T20:50:13.897Z,23.10
2022-08-27T20:52:41.551Z,23.10
2022-08-27T20:55:10.126Z,23.00
2022-08-27T20:57:36.958Z,23.10
2022-08-27T21:00:20.501Z,23.10
2022-08-27T21:02:47.912Z,23.10
2022-08-27T21:05:16.765Z,23.00
2022-08-27T21:07:44.661Z,23.00
2022-08-27T21:10:11.814Z,23.10
2022-08-27T21:12:38.572Z,23.00
2022-08-27T21:15:07.345Z,23.00
2022-08-27T21:17:34.289Z,23.00
2022-08-27T21:20:01.803Z,23.00
2022-08-27T21:22:28.567Z,23.00
2022-08-27T21:24:55.648Z,23.00
2022-08-27T21:27:22.777Z,23.00
2022-08-27T21:29:50.350Z,23.00
2022-08-27T21:32:17.686Z,23.00
2022-08-27T21:34:44.757Z,23.00
2022-08-27T21:37:13.872Z,22.90
2022-08-27T21:39:42.554Z,22.90
2022-08-27T21:42:10.138Z,22.90
2022-08-27T21:44:37.476Z,22.90
2022-08-27T21:47:05.558Z,22.90
2022-08-27T21:49:33.037Z,22.90
2022-08-27T21:52:03.361Z,22.90
2022-08-27T21:54:32.903Z,22.80
2022-08-27T21:57:00.779Z,22.90
2022-08-27T21:59:27.863Z,22.90
2022-08-27T22:02:00.565Z,22.80
2022-08-27T22:04:30.653Z,22.90
2022-08-27T22:06:58.860Z,23.00
2022-08-27T22:09:26.193Z,22.90
2022-08-27T22:11:53.419Z,22.80
2022-08-27T22:14:21.501Z,22.90
2022-08-27T22:16:48.339Z,22.80
2022-08-27T22:19:15.227Z,22.80
2022-08-27T22:21:42.675Z,22.90
2022-08-27T22:24:09.600Z,22.80
2022-08-27T22:26:37.070Z,22.80
2022-08-27T22:29:06.523Z,22.80
2022-08-27T22:31:36.098Z,22.80
2022-08-27T22:34:05.023Z,22.80
2022-08-27T22:36:35.323Z,22.70
2022-08-27T22:39:04.410Z,22.90
2022-08-27T22:41:36.458Z,22.80
2022-08-27T22:44:09.313Z,22.80
2022-08-27T22:49:19.170Z,22.80
2022-08-27T22:51:46.578Z,22.80
2022-08-27T22:54:19.039Z,22.80
2022-08-27T22:56:45.961Z,22.70
2022-08-27T22:59:14.208Z,22.80
2022-08-27T23:01:41.113Z,22.70
2022-08-27T23:04:08.257Z,22.80
2022-08-27T23:06:35.526Z,22.80
2022-08-27T23:09:02.484Z,22.70
2022-08-27T23:11:31.990Z,22.80
2022-08-27T23:14:00.820Z,22.70
2022-08-27T23:16:51.961Z,22.70
2022-08-27T23:19:19.224Z,22.70
2022-08-27T23:21:46.147Z,22.80
2022-08-27T23:24:13.000Z,22.70
2022-08-27T23:26:58.340Z,22.70
2022-08-27T23:29:25.197Z,22.70
2022-08-27T23:31:52.708Z,22.70
2022-08-27T23:34:20.343Z,22.70
2022-08-27T23:36:47.993Z,22.70
2022-08-27T23:39:15.755Z,22.60
2022-08-27T23:41:44.039Z,22.60
2022-08-27T23:44:11.969Z,22.60
2022-08-27T23:46:39.422Z,22.60
2022-08-27T23:49:06.342Z,22.60
2022-08-27T23:51:33.811Z,22.60
2022-08-27T23:54:00.749Z,22.60
2022-08-27T23:56:30.090Z,22.60
2022-08-27T23:58:57.127Z,22.60
